Time;durP1;ratioP1;P1;durP2;ratioP2;P2;SDS_P1;SDS_P2;PMS_P1;PMS_P2;Temp;Humidity;BMP_temperature;BMP_pressure;BME280_temperature;BME280_humidity;BME280_pressure;Samples;Min_cycle;Max_cycle;Signal;HPM_P1;HPM_P2
2022/12/19 00:01:54;;;;;;;;;;;19.90;44.80;;;;;;5082550;28;43539;-60
2022/12/19 00:04:21;;;;;;;;;;;19.90;44.90;;;;;;5081897;28;43502;-60
2022/12/19 00:06:49;;;;;;;;;;;19.90;44.90;;;;;;5082091;28;43422;-60
2022/12/19 00:09:16;;;;;;;;;;;19.80;44.90;;;;;;5085685;27;45098;-60
2022/12/19 00:11:43;;;;;;;;;;;19.80;44.90;;;;;;5099403;27;43497;-60
2022/12/19 00:14:11;;;;;;;;;;;19.80;44.90;;;;;;5087913;27;43473;-60
2022/12/19 00:16:38;;;;;;;;;;;19.80;45.00;;;;;;5092726;27;43513;-59
2022/12/19 00:19:06;;;;;;;;;;;19.80;45.00;;;;;;5096229;27;44408;-60
2022/12/19 00:21:34;;;;;;;;;;;19.80;45.00;;;;;;5085179;27;43847;-60
2022/12/19 00:24:05;;;;;;;;;;;19.80;45.00;;;;;;5102447;27;43455;-60
2022/12/19 00:26:47;;;;;;;;;;;19.80;45.00;;;;;;5086258;27;43499;-60
2022/12/19 00:29:14;;;;;;;;;;;19.80;45.00;;;;;;5097807;27;43981;-60
2022/12/19 00:31:43;;;;;;;;;;;19.80;45.00;;;;;;5082794;27;43525;-60
2022/12/19 00:34:13;;;;;;;;;;;19.80;45.00;;;;;;5089149;27;43468;-60
2022/12/19 00:36:41;;;;;;;;;;;19.70;45.00;;;;;;5089090;27;43473;-59
2022/12/19 00:39:09;;;;;;;;;;;19.70;45.00;;;;;;5097933;27;43950;-60
2022/12/19 00:41:38;;;;;;;;;;;19.70;45.00;;;;;;5087027;27;43428;-60
2022/12/19 00:44:10;;;;;;;;;;;19.60;45.10;;;;;;5092471;27;43480;-60
2022/12/19 00:46:38;;;;;;;;;;;19.60;45.00;;;;;;5095931;27;43553;-60
2022/12/19 00:49:06;;;;;;;;;;;19.60;45.10;;;;;;5084483;27;44697;-60
2022/12/19 00:51:34;;;;;;;;;;;19.60;45.10;;;;;;5096260;27;43513;-60
2022/12/19 00:54:02;;;;;;;;;;;19.60;45.10;;;;;;5091556;27;43416;-60
2022/12/19 00:56:34;;;;;;;;;;;19.60;45.10;;;;;;5086725;27;43643;-60
2022/12/19 00:59:06;;;;;;;;;;;19.50;45.00;;;;;;5084218;27;45122;-60
2022/12/19 01:01:35;;;;;;;;;;;19.60;45.10;;;;;;5094364;27;43794;-60
2022/12/19 01:04:03;;;;;;;;;;;19.50;45.10;;;;;;5092393;27;43416;-59
2022/12/19 01:06:51;;;;;;;;;;;19.50;45.10;;;;;;5084542;27;43414;-60
2022/12/19 01:09:20;;;;;;;;;;;19.60;45.10;;;;;;5094400;27;45030;-60
2022/12/19 01:14:34;;;;;;;;;;;19.50;45.10;;;;;;5085505;27;43467;-60
2022/12/19 01:17:01;;;;;;;;;;;19.50;45.10;;;;;;5096477;27;43593;-60
2022/12/19 01:19:29;;;;;;;;;;;19.50;45.10;;;;;;5090863;27;45055;-60
2022/12/19 01:21:56;;;;;;;;;;;19.40;45.20;;;;;;5087128;27;43537;-60
2022/12/19 01:24:23;;;;;;;;;;;19.40;45.20;;;;;;5096041;27;43414;-60
2022/12/19 01:26:51;;;;;;;;;;;19.40;45.20;;;;;;5087237;27;43600;-60
2022/12/19 01:29:19;;;;;;;;;;;19.40;45.30;;;;;;5092227;27;44762;-59
2022/12/19 01:31:47;;;;;;;;;;;19.40;45.30;;;;;;5094736;27;43783;-60
2022/12/19 01:34:14;;;;;;;;;;;19.40;45.30;;;;;;5088914;27;43454;-60
2022/12/19 01:36:41;;;;;;;;;;;19.40;45.40;;;;;;5099083;27;43447;-60
2022/12/19 01:39:09;;;;;;;;;;;19.30;45.40;;;;;;5093287;27;44979;-60
2022/12/19 01:41:36;;;;;;;;;;;19.30;45.30;;;;;;5089849;27;43514;-60
2022/12/19 01:44:05;;;;;;;;;;;19.30;45.40;;;;;;5101741;27;43343;-60
2022/12/19 01:46:34;;;;;;;;;;;19.30;45.40;;;;;;5088538;27;43430;-59
2022/12/19 01:49:03;;;;;;;;;;;19.30;45.40;;;;;;5095360;27;43936;-60
2022/12/19 01:51:38;;;;;;;;;;;19.20;45.40;;;;;;5097051;27;43468;-60
2022/12/19 01:54:07;;;;;;;;;;;19.30;45.40;;;;;;5088554;27;43920;-60
2022/12/19 01:56:37;;;;;;;;;;;19.20;45.40;;;;;;5096701;27;43487;-60
2022/12/19 01:59:11;;;;;;;;;;;19.20;45.50;;;;;;5094049;27;44053;-59
2022/12/19 02:01:40;;;;;;;;;;;19.20;45.50;;;;;;5087397;27;43777;-60
2022/12/19 02:04:22;;;;;;;;;;;19.20;45.60;;;;;;5085274;27;43414;-60
2022/12/19 02:06:50;;;;;;;;;;;19.10;45.60;;;;;;5095070;27;43595;-60
2022/12/19 02:09:17;;;;;;;;;;;19.10;45.60;;;;;;5088049;27;44942;-60
2022/12/19 02:11:45;;;;;;;;;;;19.10;45.60;;;;;;5101264;27;43466;-60
2022/12/19 02:14:12;;;;;;;;;;;19.10;45.60;;;;;;5096723;27;43433;-60
2022/12/19 02:16:58;;;;;;;;;;;19.10;45.60;;;;;;5093982;27;43616;-59
2022/12/19 02:19:37;;;;;;;;;;;19.10;45.60;;;;;;5086077;27;43590;-60
2022/12/19 02:22:07;;;;;;;;;;;19.10;45.70;;;;;;5097043;27;43825;-60
2022/12/19 02:24:35;;;;;;;;;;;19.10;45.70;;;;;;5094236;27;43407;-60
2022/12/19 02:27:03;;;;;;;;;;;19.10;45.70;;;;;;5088751;27;43912;-60
2022/12/19 02:29:33;;;;;;;;;;;19.00;45.70;;;;;;5100722;27;44772;-59
2022/12/19 02:32:04;;;;;;;;;;;19.00;45.70;;;;;;5090598;27;43450;-60
2022/12/19 02:34:44;;;;;;;;;;;19.00;45.70;;;;;;5090326;27;43492;-60
2022/12/19 02:37:29;;;;;;;;;;;19.00;45.70;;;;;;5099806;27;43481;-60
2022/12/19 02:40:01;;;;;;;;;;;19.00;45.70;;;;;;5090670;27;44656;-60
2022/12/19 02:42:34;;;;;;;;;;;19.00;45.70;;;;;;5089392;27;43775;-60
2022/12/19 02:45:04;;;;;;;;;;;18.90;45.70;;;;;;5099116;27;44007;-60
2022/12/19 02:47:33;;;;;;;;;;;18.90;45.80;;;;;;5088653;27;43566;-60
2022/12/19 02:50:03;;;;;;;;;;;18.90;45.80;;;;;;5092666;27;45337;-60
2022/12/19 02:52:31;;;;;;;;;;;18.90;45.80;;;;;;5096713;27;43432;-59
2022/12/19 02:55:04;;;;;;;;;;;19.00;45.80;;;;;;5100125;27;43454;-59
2022/12/19 02:57:38;;;;;;;;;;;18.90;45.70;;;;;;5089765;27;43455;-60
2022/12/19 03:00:32;;;;;;;;;;;18.90;45.80;;;;;;5089909;27;44998;-60
2022/12/19 03:03:07;;;;;;;;;;;18.90;45.80;;;;;;5095570;27;43388;-60
2022/12/19 03:05:38;;;;;;;;;;;18.90;45.90;;;;;;5092602;27;43389;-59
2022/12/19 03:08:15;;;;;;;;;;;18.80;45.80;;;;;;5089142;27;43522;-59
2022/12/19 03:10:51;;;;;;;;;;;18.90;45.90;;;;;;5098291;27;43798;-60
2022/12/19 03:13:23;;;;;;;;;;;18.80;45.90;;;;;;5089651;27;43509;-59
2022/12/19 03:15:51;;;;;;;;;;;18.80;45.90;;;;;;5089777;27;43582;-59
2022/12/19 03:18:20;;;;;;;;;;;18.90;45.90;;;;;;5098486;27;43446;-59
2022/12/19 03:21:02;;;;;;;;;;;18.80;45.90;;;;;;5098850;27;44337;-59
2022/12/19 03:23:30;;;;;;;;;;;18.70;46.00;;;;;;5093112;27;43470;-59
2022/12/19 03:26:00;;;;;;;;;;;18.80;46.00;;;;;;5089198;27;43921;-59
2022/12/19 03:28:46;;;;;;;;;;;18.80;46.10;;;;;;5100343;27;43429;-59
2022/12/19 03:31:15;;;;;;;;;;;18.80;46.10;;;;;;5091738;27;43891;-59
2022/12/19 03:33:44;;;;;;;;;;;18.80;46.10;;;;;;5089389;27;43931;-59
2022/12/19 03:36:14;;;;;;;;;;;18.70;46.10;;;;;;5099904;27;43969;-59
2022/12/19 03:38:44;;;;;;;;;;;18.70;46.10;;;;;;5088224;27;43480;-59
2022/12/19 03:41:13;;;;;;;;;;;18.70;46.10;;;;;;5092903;27;43798;-59
2022/12/19 03:43:42;;;;;;;;;;;18.70;46.10;;;;;;5097800;27;43613;-59
2022/12/19 03:46:12;;;;;;;;;;;18.60;46.10;;;;;;5086244;27;43445;-59
2022/12/19 03:48:47;;;;;;;;;;;18.70;46.20;;;;;;5096145;27;43456;-59
2022/12/19 03:51:17;;;;;;;;;;;18.60;46.10;;;;;;5094275;27;44047;-59
2022/12/19 03:53:48;;;;;;;;;;;18.60;46.10;;;;;;5086429;27;43976;-59
2022/12/19 03:56:30;;;;;;;;;;;18.60;46.10;;;;;;5082701;27;43367;-59
2022/12/19 03:59:23;;;;;;;;;;;18.60;46.10;;;;;;5093399;27;43455;-59
2022/12/19 04:01:52;;;;;;;;;;;18.60;46.20;;;;;;5082792;27;44713;-59
2022/12/19 04:04:20;;;;;;;;;;;18.60;46.10;;;;;;5096353;27;43529;-59
2022/12/19 04:06:48;;;;;;;;;;;18.60;46.20;;;;;;5093307;27;43396;-59
2022/12/19 04:09:16;;;;;;;;;;;18.50;46.10;;;;;;5087638;27;43524;-59
2022/12/19 04:11:51;;;;;;;;;;;18.60;46.20;;;;;;5084471;27;44046;-59
2022/12/19 04:14:37;;;;;;;;;;;18.50;46.10;;;;;;5089433;27;43409;-59
2022/12/19 04:17:20;;;;;;;;;;;18.50;46.20;;;;;;5088476;27;43428;-59
2022/12/19 04:19:54;;;;;;;;;;;18.50;46.20;;;;;;5097741;27;43405;-59
2022/12/19 04:22:24;;;;;;;;;;;18.50;46.20;;;;;;5091566;27;44980;-59
2022/12/19 04:24:52;;;;;;;;;;;18.50;46.20;;;;;;5088362;27;43476;-59
2022/12/19 04:27:21;;;;;;;;;;;18.50;46.30;;;;;;5098172;27;44078;-59
2022/12/19 04:29:54;;;;;;;;;;;18.50;46.40;;;;;;5088436;27;43500;-59
2022/12/19 04:32:22;;;;;;;;;;;18.50;46.30;;;;;;5091557;27;44656;-59
2022/12/19 04:34:49;;;;;;;;;;;18.40;46.30;;;;;;5096093;27;43409;-59
2022/12/19 04:37:17;;;;;;;;;;;18.40;46.40;;;;;;5085809;27;43445;-59
2022/12/19 04:39:45;;;;;;;;;;;18.40;46.40;;;;;;5100434;27;43459;-59
2022/12/19 04:42:12;;;;;;;;;;;18.40;46.40;;;;;;5097126;27;44780;-59
2022/12/19 04:44:39;;;;;;;;;;;18.40;46.40;;;;;;5088003;27;43769;-59
2022/12/19 04:47:07;;;;;;;;;;;18.40;46.40;;;;;;5100153;27;43425;-59
2022/12/19 04:49:34;;;;;;;;;;;18.40;46.40;;;;;;5095303;27;43492;-59
2022/12/19 04:52:01;;;;;;;;;;;18.40;46.40;;;;;;5092883;27;44677;-59
2022/12/19 04:54:28;;;;;;;;;;;18.30;46.40;;;;;;5086870;27;43448;-59
2022/12/19 04:56:56;;;;;;;;;;;18.40;46.50;;;;;;5098833;27;43358;-59
2022/12/19 04:59:23;;;;;;;;;;;18.30;46.40;;;;;;5088391;27;43430;-59
2022/12/19 05:01:50;;;;;;;;;;;18.30;46.40;;;;;;5090941;27;43772;-59
2022/12/19 05:04:18;;;;;;;;;;;18.30;46.50;;;;;;5096762;27;43383;-59
2022/12/19 05:06:45;;;;;;;;;;;18.30;46.50;;;;;;5085773;27;43981;-59
2022/12/19 05:09:12;;;;;;;;;;;18.30;46.50;;;;;;5098230;27;44005;-59
2022/12/19 05:11:40;;;;;;;;;;;18.30;46.60;;;;;;5096007;27;43815;-59
2022/12/19 05:14:07;;;;;;;;;;;18.30;46.50;;;;;;5091263;27;43515;-59
2022/12/19 05:16:35;;;;;;;;;;;18.30;46.50;;;;;;5101650;27;43413;-59
2022/12/19 05:19:02;;;;;;;;;;;18.30;46.50;;;;;;5091824;27;43646;-59
2022/12/19 05:21:29;;;;;;;;;;;18.20;46.50;;;;;;5095716;27;43922;-59
2022/12/19 05:23:58;;;;;;;;;;;18.20;46.50;;;;;;5098896;27;43519;-59
2022/12/19 05:26:25;;;;;;;;;;;18.20;46.60;;;;;;5087340;27;43470;-59
2022/12/19 05:28:52;;;;;;;;;;;18.20;46.60;;;;;;5091554;27;43465;-59
2022/12/19 05:31:20;;;;;;;;;;;18.20;46.90;;;;;;5104928;27;44652;-59
2022/12/19 05:33:47;;;;;;;;;;;18.20;46.60;;;;;;5090472;27;43448;-59
2022/12/19 05:36:15;;;;;;;;;;;18.20;46.60;;;;;;5101918;27;43356;-59
2022/12/19 05:38:42;;;;;;;;;;;18.20;46.70;;;;;;5090654;27;43619;-59
2022/12/19 05:41:15;;;;;;;;;;;18.20;46.70;;;;;;5094956;27;44042;-59
2022/12/19 05:43:49;;;;;;;;;;;18.10;46.70;;;;;;5099421;27;43490;-59
2022/12/19 05:46:16;;;;;;;;;;;18.10;46.70;;;;;;5101210;27;43493;-59
2022/12/19 05:48:44;;;;;;;;;;;18.10;46.70;;;;;;5092661;27;43463;-59
2022/12/19 05:51:11;;;;;;;;;;;18.10;46.70;;;;;;5092459;27;44587;-59
2022/12/19 05:53:38;;;;;;;;;;;18.10;46.70;;;;;;5100672;27;43493;-59
2022/12/19 05:56:07;;;;;;;;;;;18.10;46.70;;;;;;5100863;27;43384;-59
2022/12/19 05:58:35;;;;;;;;;;;18.10;46.70;;;;;;5094747;27;43470;-59
2022/12/19 06:01:29;;;;;;;;;;;18.10;46.70;;;;;;5097302;27;44045;-59
2022/12/19 06:03:56;;;;;;;;;;;18.10;46.70;;;;;;5097854;27;43536;-59
2022/12/19 06:06:25;;;;;;;;;;;18.10;46.80;;;;;;5104793;27;43488;-59
2022/12/19 06:08:53;;;;;;;;;;;18.10;46.80;;;;;;5100078;27;43488;-59
2022/12/19 06:11:20;;;;;;;;;;;18.00;46.70;;;;;;5089869;27;44052;-59
2022/12/19 06:13:48;;;;;;;;;;;18.00;46.70;;;;;;5099838;27;43620;-59
2022/12/19 06:16:17;;;;;;;;;;;18.00;46.80;;;;;;5092418;27;43406;-59
2022/12/19 06:18:45;;;;;;;;;;;18.00;46.80;;;;;;5092132;27;43444;-59
2022/12/19 06:21:14;;;;;;;;;;;18.00;46.80;;;;;;5088569;27;43798;-59
2022/12/19 06:23:42;;;;;;;;;;;18.00;46.80;;;;;;5100393;27;43420;-59
2022/12/19 06:26:10;;;;;;;;;;;18.00;47.00;;;;;;5097718;27;43538;-60
2022/12/19 06:28:49;;;;;;;;;;;18.00;46.80;;;;;;5100702;27;43448;-59
2022/12/19 06:31:16;;;;;;;;;;;18.00;46.70;;;;;;5088378;27;43743;-59
2022/12/19 06:33:44;;;;;;;;;;;18.00;46.80;;;;;;5102940;27;43403;-59
2022/12/19 06:36:19;;;;;;;;;;;18.00;46.70;;;;;;5099142;27;43536;-59
2022/12/19 06:38:47;;;;;;;;;;;18.00;46.70;;;;;;5089151;27;43533;-59
2022/12/19 06:44:01;;;;;;;;;;;18.00;46.70;;;;;;5093277;27;43594;-59
2022/12/19 06:46:29;;;;;;;;;;;18.00;46.70;;;;;;5104609;27;43492;-60
2022/12/19 06:48:56;;;;;;;;;;;18.10;46.70;;;;;;5087243;27;43428;-59
2022/12/19 06:51:24;;;;;;;;;;;18.00;46.70;;;;;;5099254;27;44045;-59
2022/12/19 06:53:51;;;;;;;;;;;18.00;46.80;;;;;;5092886;27;43765;-59
2022/12/19 06:56:19;;;;;;;;;;;18.00;46.70;;;;;;5090587;27;44049;-59
2022/12/19 06:58:46;;;;;;;;;;;18.00;46.80;;;;;;5100346;27;43446;-59
2022/12/19 07:01:32;;;;;;;;;;;18.00;46.90;;;;;;5088466;27;43859;-59
2022/12/19 07:04:00;;;;;;;;;;;18.00;47.10;;;;;;5101977;27;43778;-60
2022/12/19 07:06:27;;;;;;;;;;;18.00;46.90;;;;;;5101426;27;43513;-60
2022/12/19 07:08:54;;;;;;;;;;;18.00;46.90;;;;;;5074663;27;43457;-59
2022/12/19 07:11:22;;;;;;;;;;;18.00;46.90;;;;;;5082572;28;44032;-59
2022/12/19 07:13:49;;;;;;;;;;;18.00;46.90;;;;;;5075539;27;43417;-59
2022/12/19 07:16:16;;;;;;;;;;;18.00;47.00;;;;;;5078171;28;43441;-59
2022/12/19 07:18:44;;;;;;;;;;;18.00;47.00;;;;;;5074479;28;44126;-59
2022/12/19 07:21:11;;;;;;;;;;;18.00;47.00;;;;;;5076528;28;43773;-59
2022/12/19 07:23:39;;;;;;;;;;;18.00;47.10;;;;;;5082434;27;43492;-59
2022/12/19 07:26:07;;;;;;;;;;;17.90;47.00;;;;;;5076734;28;43371;-59
2022/12/19 07:28:35;;;;;;;;;;;17.90;47.00;;;;;;5082711;28;43459;-59
2022/12/19 07:31:02;;;;;;;;;;;17.90;47.00;;;;;;5081209;27;44700;-59
2022/12/19 07:33:30;;;;;;;;;;;17.90;47.10;;;;;;5082316;28;43404;-60
2022/12/19 07:35:57;;;;;;;;;;;17.90;47.10;;;;;;5078494;28;43418;-60
2022/12/19 07:38:24;;;;;;;;;;;17.90;47.00;;;;;;5077945;27;43590;-59
2022/12/19 07:40:52;;;;;;;;;;;17.90;47.10;;;;;;5080564;27;43762;-59
2022/12/19 07:43:19;;;;;;;;;;;17.90;47.00;;;;;;5080503;28;43741;-59
2022/12/19 07:45:52;;;;;;;;;;;17.90;47.00;;;;;;5072771;27;43923;-59
2022/12/19 07:48:20;;;;;;;;;;;17.90;47.00;;;;;;5067499;28;43453;-59
2022/12/19 07:50:48;;;;;;;;;;;18.00;47.10;;;;;;5073620;28;44773;-59
2022/12/19 07:53:15;;;;;;;;;;;18.00;47.10;;;;;;5075078;28;43452;-59
2022/12/19 07:55:43;;;;;;;;;;;18.00;47.10;;;;;;5073516;28;43497;-59
2022/12/19 07:58:10;;;;;;;;;;;17.90;47.10;;;;;;5079424;28;43566;-59
2022/12/19 08:00:39;;;;;;;;;;;17.90;47.10;;;;;;5071726;28;44961;-61
2022/12/19 08:03:06;;;;;;;;;;;17.90;47.20;;;;;;5080150;28;43609;-59
2022/12/19 08:05:34;;;;;;;;;;;17.90;47.20;;;;;;5056437;28;43490;-60
2022/12/19 08:08:02;;;;;;;;;;;18.00;47.40;;;;;;5085823;27;43488;-59
2022/12/19 08:10:29;;;;;;;;;;;18.00;47.30;;;;;;5086362;27;43895;-59
2022/12/19 08:12:58;;;;;;;;;;;18.00;47.20;;;;;;5097141;27;43418;-59
2022/12/19 08:15:26;;;;;;;;;;;18.10;47.90;;;;;;5087045;27;43440;-59
2022/12/19 08:17:53;;;;;;;;;;;18.10;47.50;;;;;;5099660;27;43547;-59
2022/12/19 08:20:22;;;;;;;;;;;18.20;47.20;;;;;;5089043;27;44071;-59
2022/12/19 08:22:50;;;;;;;;;;;18.30;47.10;;;;;;5091074;27;43440;-59
2022/12/19 08:25:17;;;;;;;;;;;18.40;47.20;;;;;;5089036;27;43379;-59
2022/12/19 08:27:44;;;;;;;;;;;18.50;47.10;;;;;;5097488;27;43501;-59
2022/12/19 08:30:12;;;;;;;;;;;18.60;47.20;;;;;;5092491;27;44651;-59
2022/12/19 08:32:40;;;;;;;;;;;18.70;47.10;;;;;;5098498;27;43682;-59
2022/12/19 08:35:07;;;;;;;;;;;18.80;46.80;;;;;;5094520;27;43409;-60
2022/12/19 08:37:35;;;;;;;;;;;19.00;48.80;;;;;;5093636;27;43466;-58
2022/12/19 08:40:02;;;;;;;;;;;19.10;46.60;;;;;;5089059;27;43793;-58
2022/12/19 08:42:32;;;;;;;;;;;19.20;46.40;;;;;;5107660;27;43764;-58
2022/12/19 08:44:59;;;;;;;;;;;19.30;46.30;;;;;;5110544;27;43394;-58
2022/12/19 08:47:27;;;;;;;;;;;19.40;46.20;;;;;;5096504;27;43654;-58
2022/12/19 08:49:54;;;;;;;;;;;19.50;46.10;;;;;;5103254;27;43788;-58
2022/12/19 08:52:23;;;;;;;;;;;19.50;45.90;;;;;;5103384;27;43439;-59
2022/12/19 08:54:50;;;;;;;;;;;19.60;46.00;;;;;;5105313;27;43507;-59
2022/12/19 08:57:17;;;;;;;;;;;19.70;46.00;;;;;;5111613;27;43659;-59
2022/12/19 08:59:45;;;;;;;;;;;19.80;46.20;;;;;;5099912;27;44963;-58
2022/12/19 09:02:14;;;;;;;;;;;19.80;45.70;;;;;;5093399;27;43776;-59
2022/12/19 09:04:42;;;;;;;;;;;19.80;46.20;;;;;;5113464;27;43444;-60
2022/12/19 09:07:29;;;;;;;;;;;19.80;45.60;;;;;;5095823;27;43531;-59
2022/12/19 09:09:58;;;;;;;;;;;19.80;45.70;;;;;;5102152;27;44038;-59
2022/12/19 09:12:28;;;;;;;;;;;19.70;45.80;;;;;;5101529;27;43432;-58
2022/12/19 09:14:55;;;;;;;;;;;19.80;45.80;;;;;;5094165;27;43548;-58
2022/12/19 09:17:22;;;;;;;;;;;19.70;45.80;;;;;;5094323;27;43648;-58
2022/12/19 09:19:51;;;;;;;;;;;19.80;46.00;;;;;;5090396;27;43876;-59
2022/12/19 09:22:19;;;;;;;;;;;19.80;46.00;;;;;;5091050;27;43401;-58
2022/12/19 09:24:53;;;;;;;;;;;19.80;45.90;;;;;;5088885;27;43463;-58
2022/12/19 09:27:22;;;;;;;;;;;19.90;45.90;;;;;;5090236;27;44102;-58
2022/12/19 09:29:49;;;;;;;;;;;20.00;45.90;;;;;;5090104;27;44640;-58
2022/12/19 09:32:16;;;;;;;;;;;20.10;45.90;;;;;;5101518;27;43686;-60
2022/12/19 09:34:44;;;;;;;;;;;20.10;46.00;;;;;;5103865;27;43383;-60
2022/12/19 09:37:11;;;;;;;;;;;20.20;46.00;;;;;;5105303;27;43426;-61
2022/12/19 09:39:44;;;;;;;;;;;20.20;45.90;;;;;;5106347;27;44700;-61
2022/12/19 09:42:37;;;;;;;;;;;20.30;46.00;;;;;;5090177;27;43334;-61
2022/12/19 09:45:10;;;;;;;;;;;20.30;45.90;;;;;;5103871;27;43521;-59
2022/12/19 09:47:46;;;;;;;;;;;20.30;46.00;;;;;;5093008;27;43444;-59
2022/12/19 09:50:31;;;;;;;;;;;20.30;45.80;;;;;;5087909;27;44052;-62
2022/12/19 09:53:05;;;;;;;;;;;20.40;45.90;;;;;;5103962;27;43852;-60
2022/12/19 09:55:34;;;;;;;;;;;20.40;45.90;;;;;;5089531;27;43532;-62
2022/12/19 09:58:07;;;;;;;;;;;20.40;45.90;;;;;;5100906;27;43477;-61
2022/12/19 10:00:36;;;;;;;;;;;20.50;45.90;;;;;;5085300;27;44847;-61
2022/12/19 10:03:06;;;;;;;;;;;20.50;45.80;;;;;;5097572;27;43388;-61
2022/12/19 10:05:44;;;;;;;;;;;20.50;45.80;;;;;;5088279;27;43490;-60
2022/12/19 10:08:33;;;;;;;;;;;20.50;45.70;;;;;;5095243;27;43524;-60
2022/12/19 10:11:38;;;;;;;;;;;20.60;45.80;;;;;;5100006;27;43788;-60
2022/12/19 10:14:44;;;;;;;;;;;20.60;45.90;;;;;;5093817;27;43533;-60
2022/12/19 10:17:21;;;;;;;;;;;20.70;45.70;;;;;;5092763;27;43482;-61
2022/12/19 10:20:00;;;;;;;;;;;20.80;45.70;;;;;;5075657;27;43982;-60
2022/12/19 10:22:40;;;;;;;;;;;20.90;45.70;;;;;;5094437;27;43700;-61
2022/12/19 10:25:26;;;;;;;;;;;21.00;45.80;;;;;;5084743;27;43562;-60
2022/12/19 10:27:55;;;;;;;;;;;21.10;45.70;;;;;;5092340;27;43553;-61
2022/12/19 10:30:28;;;;;;;;;;;21.20;45.80;;;;;;5089671;27;43560;-61
2022/12/19 10:33:03;;;;;;;;;;;21.20;46.00;;;;;;5094230;27;43998;-61
2022/12/19 10:35:33;;;;;;;;;;;21.30;46.10;;;;;;5106668;27;43454;-61
2022/12/19 10:38:14;;;;;;;;;;;21.30;46.00;;;;;;5097363;27;43526;-60
2022/12/19 10:40:44;;;;;;;;;;;21.40;45.70;;;;;;5098827;27;43427;-61
2022/12/19 10:43:31;;;;;;;;;;;21.50;45.50;;;;;;5096277;27;43878;-61
2022/12/19 10:46:11;;;;;;;;;;;21.50;45.40;;;;;;5090231;27;43441;-60
2022/12/19 10:48:39;;;;;;;;;;;21.50;45.20;;;;;;5096440;27;43474;-61
2022/12/19 10:51:18;;;;;;;;;;;21.50;45.20;;;;;;5095297;27;43499;-62
2022/12/19 10:53:51;;;;;;;;;;;21.50;45.20;;;;;;5093295;27;43602;-61
2022/12/19 10:56:22;;;;;;;;;;;21.50;45.20;;;;;;5093746;27;43556;-61
2022/12/19 10:58:56;;;;;;;;;;;21.50;45.30;;;;;;5086694;27;43836;-61
2022/12/19 11:01:30;;;;;;;;;;;21.40;45.40;;;;;;5093152;27;43473;-61
2022/12/19 11:04:18;;;;;;;;;;;21.40;45.40;;;;;;5087126;27;44056;-60
2022/12/19 11:07:01;;;;;;;;;;;21.40;45.40;;;;;;5089717;27;43463;-61
2022/12/19 11:09:30;;;;;;;;;;;21.40;45.40;;;;;;5092631;27;43489;-60
2022/12/19 11:12:07;;;;;;;;;;;21.40;45.50;;;;;;5098763;27;43537;-60
2022/12/19 11:15:13;;;;;;;;;;;21.40;45.60;;;;;;5095287;27;44053;-60
2022/12/19 11:18:08;;;;;;;;;;;21.40;45.60;;;;;;5105448;27;43415;-62
2022/12/19 11:21:04;;;;;;;;;;;21.40;45.70;;;;;;5097215;27;43445;-61
2022/12/19 11:23:58;;;;;;;;;;;21.30;45.70;;;;;;5094503;27;43390;-60
2022/12/19 11:26:49;;;;;;;;;;;21.30;45.80;;;;;;5094436;27;44023;-60
2022/12/19 11:29:45;;;;;;;;;;;21.30;45.90;;;;;;5091175;27;43545;-61
2022/12/19 11:32:35;;;;;;;;;;;21.30;46.00;;;;;;5092949;27;43484;-60
2022/12/19 11:35:19;;;;;;;;;;;21.20;46.00;;;;;;5087146;27;43417;-61
2022/12/19 11:37:58;;;;;;;;;;;21.20;46.00;;;;;;5091747;27;44143;-60
2022/12/19 11:40:36;;;;;;;;;;;21.20;46.10;;;;;;5084120;27;43569;-60
2022/12/19 11:43:24;;;;;;;;;;;21.20;46.20;;;;;;5105355;27;43635;-60
2022/12/19 11:46:10;;;;;;;;;;;21.10;46.20;;;;;;5109667;27;43555;-60
2022/12/19 11:48:54;;;;;;;;;;;21.20;46.30;;;;;;5112593;27;44745;-60
2022/12/19 11:51:29;;;;;;;;;;;21.20;46.30;;;;;;5095227;27;43408;-61
2022/12/19 11:54:12;;;;;;;;;;;21.20;46.40;;;;;;5105868;27;43435;-60
2022/12/19 11:56:40;;;;;;;;;;;21.10;46.30;;;;;;5089619;27;43492;-60
2022/12/19 11:59:15;;;;;;;;;;;21.10;46.40;;;;;;5091108;27;45299;-60
2022/12/19 12:01:55;;;;;;;;;;;21.10;46.40;;;;;;5095145;27;43503;-60
2022/12/19 12:04:41;;;;;;;;;;;21.10;46.50;;;;;;5092577;27;43414;-60
2022/12/19 12:07:10;;;;;;;;;;;21.10;46.50;;;;;;5086894;27;43532;-60
2022/12/19 12:10:09;;;;;;;;;;;21.10;46.60;;;;;;5097134;27;43890;-60
2022/12/19 12:13:12;;;;;;;;;;;21.10;46.60;;;;;;5093062;27;43924;-60
2022/12/19 12:16:08;;;;;;;;;;;21.10;46.60;;;;;;5089867;27;43413;-60
2022/12/19 12:19:14;;;;;;;;;;;21.10;46.70;;;;;;5093996;27;43375;-60
2022/12/19 12:22:05;;;;;;;;;;;21.10;46.60;;;;;;5109321;27;43783;-61
2022/12/19 12:25:05;;;;;;;;;;;21.10;46.70;;;;;;5100375;27;43488;-61
2022/12/19 12:28:11;;;;;;;;;;;21.10;46.70;;;;;;5084814;27;43963;-60
2022/12/19 12:30:58;;;;;;;;;;;21.10;46.70;;;;;;5099036;27;43691;-60
2022/12/19 12:34:01;;;;;;;;;;;21.10;46.80;;;;;;5083709;27;43772;-60
2022/12/19 12:37:07;;;;;;;;;;;21.10;47.10;;;;;;5089469;27;43428;-60
2022/12/19 12:40:13;;;;;;;;;;;21.10;46.80;;;;;;5087896;27;43552;-60
2022/12/19 12:42:52;;;;;;;;;;;21.10;46.80;;;;;;5106684;27;43655;-60
2022/12/19 12:45:26;;;;;;;;;;;21.10;46.90;;;;;;5092450;27;44056;-60
2022/12/19 12:47:53;;;;;;;;;;;21.10;46.90;;;;;;5095641;27;43390;-60
2022/12/19 12:50:23;;;;;;;;;;;21.10;46.90;;;;;;5102743;27;43561;-56
2022/12/19 12:53:09;;;;;;;;;;;21.10;47.00;;;;;;5104757;27;43546;-60
2022/12/19 12:55:42;;;;;;;;;;;21.20;46.90;;;;;;5096738;27;44062;-60
2022/12/19 12:58:28;;;;;;;;;;;21.20;46.90;;;;;;5104259;27;43899;-60
2022/12/19 13:01:08;;;;;;;;;;;21.20;47.00;;;;;;5096366;27;43449;-60
2022/12/19 13:03:36;;;;;;;;;;;21.10;46.90;;;;;;5102952;27;43493;-60
2022/12/19 13:06:05;;;;;;;;;;;21.10;47.00;;;;;;5098324;27;43889;-60
2022/12/19 13:08:44;;;;;;;;;;;21.10;47.00;;;;;;5088205;27;43654;-60
2022/12/19 13:14:39;;;;;;;;;;;21.10;47.00;;;;;;5089407;27;43621;-60
2022/12/19 13:17:18;;;;;;;;;;;21.10;46.90;;;;;;5107584;27;43558;-60
2022/12/19 13:19:53;;;;;;;;;;;21.10;46.90;;;;;;5087969;27;44047;-61
2022/12/19 13:22:40;;;;;;;;;;;21.10;46.90;;;;;;5089160;27;44059;-60
2022/12/19 13:25:26;;;;;;;;;;;21.10;47.00;;;;;;5086288;27;43424;-60
2022/12/19 13:27:57;;;;;;;;;;;21.10;46.90;;;;;;5102074;27;45037;-60
2022/12/19 13:30:27;;;;;;;;;;;21.10;47.00;;;;;;5106029;27;43395;-60
2022/12/19 13:32:54;;;;;;;;;;;21.10;47.00;;;;;;5098980;27;43994;-60
2022/12/19 13:35:28;;;;;;;;;;;21.10;47.00;;;;;;5094970;27;43704;-61
2022/12/19 13:38:19;;;;;;;;;;;21.10;47.00;;;;;;5095488;27;44101;-60
2022/12/19 13:44:10;;;;;;;;;;;21.10;47.10;;;;;;5113252;27;43385;-60
2022/12/19 13:46:41;;;;;;;;;;;21.10;47.20;;;;;;5097112;27;43487;-60
2022/12/19 13:49:08;;;;;;;;;;;21.00;47.20;;;;;;5097011;27;44737;-60
2022/12/19 13:51:55;;;;;;;;;;;21.00;47.30;;;;;;5107096;27;43458;-60
2022/12/19 13:54:28;;;;;;;;;;;21.00;47.20;;;;;;5091858;27;43545;-60
2022/12/19 13:56:59;;;;;;;;;;;21.00;47.30;;;;;;5092844;27;43478;-60
2022/12/19 13:59:36;;;;;;;;;;;21.00;47.30;;;;;;5101403;27;43790;-60
2022/12/19 14:02:09;;;;;;;;;;;21.00;47.30;;;;;;5084793;27;43457;-60
2022/12/19 14:04:39;;;;;;;;;;;21.00;47.30;;;;;;5096594;27;43407;-61
2022/12/19 14:07:23;;;;;;;;;;;21.00;47.30;;;;;;5104314;27;43628;-59
2022/12/19 14:10:04;;;;;;;;;;;21.00;47.40;;;;;;5090131;27;44061;-60
2022/12/19 14:15:58;;;;;;;;;;;21.00;47.40;;;;;;5091329;27;43380;-60
2022/12/19 14:18:31;;;;;;;;;;;21.00;47.40;;;;;;5093958;27;43446;-60
2022/12/19 14:21:17;;;;;;;;;;;21.00;47.40;;;;;;5096376;27;43807;-60
2022/12/19 14:24:11;;;;;;;;;;;21.00;47.40;;;;;;5102284;27;43494;-60
2022/12/19 14:26:38;;;;;;;;;;;21.00;47.40;;;;;;5087618;27;43438;-60
2022/12/19 14:29:28;;;;;;;;;;;21.00;47.40;;;;;;5110279;27;43540;-60
2022/12/19 14:32:16;;;;;;;;;;;21.10;47.40;;;;;;5103254;27;43798;-60
2022/12/19 14:35:06;;;;;;;;;;;21.10;47.40;;;;;;5100815;27;43578;-60
2022/12/19 14:38:01;;;;;;;;;;;21.10;47.40;;;;;;5101094;27;43470;-60
2022/12/19 14:40:48;;;;;;;;;;;21.10;47.40;;;;;;5094933;27;43456;-60
2022/12/19 14:43:38;;;;;;;;;;;21.10;47.40;;;;;;5105748;27;43981;-60
2022/12/19 14:46:28;;;;;;;;;;;21.10;47.40;;;;;;5089438;27;43406;-60
2022/12/19 14:49:25;;;;;;;;;;;21.10;47.40;;;;;;5100143;27;43529;-60
2022/12/19 14:52:31;;;;;;;;;;;21.10;47.40;;;;;;5111805;27;43557;-60
2022/12/19 14:55:21;;;;;;;;;;;21.20;47.50;;;;;;5091531;27;44031;-60
2022/12/19 14:58:09;;;;;;;;;;;21.10;47.50;;;;;;5087564;27;43445;-60
2022/12/19 15:00:57;;;;;;;;;;;21.20;47.50;;;;;;5093260;27;43404;-60
2022/12/19 15:03:39;;;;;;;;;;;21.20;47.50;;;;;;5088412;27;43604;-60
2022/12/19 15:06:14;;;;;;;;;;;21.10;47.40;;;;;;5106963;27;43788;-60
2022/12/19 15:09:03;;;;;;;;;;;21.20;47.40;;;;;;5099262;27;43498;-60
2022/12/19 15:15:07;;;;;;;;;;;21.20;47.40;;;;;;5092828;27;43521;-60